createdAt,value
2022-11-25T00:03:48.261Z,5.90
2022-11-25T00:17:48.311Z,5.10
2022-11-25T00:31:48.341Z,5.00
2022-11-25T00:45:48.308Z,5.00
2022-11-25T00:59:48.297Z,4.50
2022-11-25T01:13:48.300Z,4.00
2022-11-25T01:27:48.426Z,3.70
2022-11-25T01:41:48.401Z,3.40
2022-11-25T01:55:48.386Z,3.20
2022-11-25T02:09:48.402Z,2.90
2022-11-25T02:23:48.611Z,2.90
2022-11-25T02:37:48.623Z,3.00
2022-11-25T02:51:48.603Z,3.00
2022-11-25T03:05:48.570Z,2.70
2022-11-25T03:19:48.603Z,2.60
2022-11-25T03:33:48.656Z,2.50
2022-11-25T03:47:48.712Z,2.20
2022-11-25T04:01:48.648Z,2.10
2022-11-25T04:15:48.667Z,2.10
2022-11-25T04:29:48.624Z,2.40
2022-11-25T04:43:48.667Z,2.40
2022-11-25T04:57:48.690Z,2.10
2022-11-25T05:11:48.689Z,2.10
2022-11-25T05:25:48.701Z,1.70
2022-11-25T05:39:48.726Z,1.70
2022-11-25T05:53:48.715Z,3.40
2022-11-25T06:07:48.780Z,6.70
2022-11-25T06:21:48.712Z,6.90
2022-11-25T06:36:48.716Z,7.80
2022-11-25T06:51:48.717Z,7.80
2022-11-25T07:07:48.895Z,20.50
2022-11-25T07:22:48.864Z,26.40
2022-11-25T07:37:48.857Z,21.60
2022-11-25T07:52:48.860Z,18.90
2022-11-25T08:07:48.957Z,18.10
2022-11-25T08:22:48.896Z,15.90
2022-11-25T08:37:48.911Z,16.60
2022-11-25T08:52:48.903Z,14.60
2022-11-25T09:07:48.982Z,12.90
2022-11-25T09:22:48.951Z,10.30
2022-11-25T09:37:48.897Z,8.70
2022-11-25T09:52:48.962Z,8.70
2022-11-25T10:07:48.949Z,7.80
2022-11-25T10:22:48.984Z,6.30
2022-11-25T10:37:48.977Z,6.60
2022-11-25T10:52:48.988Z,6.20
2022-11-25T11:07:49.028Z,8.50
2022-11-25T11:22:48.965Z,4.70
2022-11-25T11:37:49.014Z,6.65
2022-11-25T11:52:49.169Z,4.30
2022-11-25T12:07:49.177Z,4.30
2022-11-25T12:22:49.199Z,5.00
2022-11-25T12:37:49.178Z,4.70
2022-11-25T12:52:49.186Z,5.00
2022-11-25T13:07:49.283Z,2.90
2022-11-25T13:22:49.217Z,7.70
2022-11-25T13:37:49.226Z,6.10
2022-11-25T13:53:49.200Z,5.60
2022-11-25T14:08:49.558Z,5.00
2022-11-25T14:23:49.475Z,8.10
2022-11-25T14:38:49.462Z,6.20
2022-11-25T14:53:49.657Z,7.70
2022-11-25T15:08:49.607Z,4.50
2022-11-25T15:23:49.859Z,3.30
2022-11-25T15:38:49.930Z,3.80
2022-11-25T15:53:49.981Z,4.60
2022-11-25T16:08:50.060Z,2.90
2022-11-25T16:23:50.116Z,4.20
2022-11-25T16:37:50.206Z,4.25
2022-11-25T16:51:50.226Z,5.10
2022-11-25T17:05:50.195Z,5.30
2022-11-25T17:19:50.281Z,3.00
2022-11-25T17:33:50.302Z,2.60
2022-11-25T17:47:50.351Z,2.80
2022-11-25T18:01:50.439Z,2.90
2022-11-25T18:15:50.364Z,8.80
2022-11-25T18:29:50.424Z,8.30
2022-11-25T18:43:50.470Z,11.70
2022-11-25T18:57:50.519Z,16.10
2022-11-25T19:11:50.526Z,14.00
2022-11-25T19:25:50.537Z,20.70
2022-11-25T19:39:50.553Z,26.00
2022-11-25T19:53:50.700Z,30.10
2022-11-25T20:07:50.784Z,31.00
2022-11-25T20:21:50.796Z,30.20
2022-11-25T20:35:50.831Z,28.20
2022-11-25T20:49:50.832Z,26.60
2022-11-25T21:03:50.878Z,27.30
2022-11-25T21:17:50.936Z,23.90
2022-11-25T21:31:50.971Z,23.75
2022-11-25T21:45:50.975Z,21.60
2022-11-25T21:59:50.945Z,20.10
2022-11-25T22:13:50.974Z,17.80
2022-11-25T22:27:51.514Z,17.60
2022-11-25T22:41:51.245Z,15.90
2022-11-25T22:55:51.294Z,14.40
2022-11-25T23:09:51.329Z,12.20
2022-11-25T23:23:51.340Z,11.60
2022-11-25T23:37:51.401Z,10.60
2022-11-25T23:51:51.384Z,10.40
